sensor_id;sensor_type;location;lat;lon;timestamp;temperature;humidity
9730;DHT22;4904;49.152;11.004;2023-07-22T00:00:06;15.30;99.90
9730;DHT22;4904;49.152;11.004;2023-07-22T00:02:38;15.20;99.90
9730;DHT22;4904;49.152;11.004;2023-07-22T00:05:06;15.20;99.90
9730;DHT22;4904;49.152;11.004;2023-07-22T00:07:33;15.30;99.90
9730;DHT22;4904;49.152;11.004;2023-07-22T00:10:00;15.30;99.90
9730;DHT22;4904;49.152;11.004;2023-07-22T00:12:28;15.30;99.90
9730;DHT22;4904;49.152;11.004;2023-07-22T00:14:56;15.30;99.90
9730;DHT22;4904;49.152;11.004;2023-07-22T00:17:23;15.30;99.90
9730;DHT22;4904;49.152;11.004;2023-07-22T00:19:50;15.20;99.90
9730;DHT22;4904;49.152;11.004;2023-07-22T00:22:17;15.20;99.90
9730;DHT22;4904;49.152;11.004;2023-07-22T00:24:44;15.20;99.90
9730;DHT22;4904;49.152;11.004;2023-07-22T00:27:11;15.20;99.90
9730;DHT22;4904;49.152;11.004;2023-07-22T00:29:39;15.20;99.90
9730;DHT22;4904;49.152;11.004;2023-07-22T00:32:08;15.20;99.90
9730;DHT22;4904;49.152;11.004;2023-07-22T00:34:35;15.30;99.90
9730;DHT22;4904;49.152;11.004;2023-07-22T00:37:02;15.10;99.90
9730;DHT22;4904;49.152;11.004;2023-07-22T00:39:29;15.10;99.90
9730;DHT22;4904;49.152;11.004;2023-07-22T00:41:56;15.20;99.90
9730;DHT22;4904;49.152;11.004;2023-07-22T00:44:23;15.20;99.90
9730;DHT22;4904;49.152;11.004;2023-07-22T00:46:53;15.10;99.90
9730;DHT22;4904;49.152;11.004;2023-07-22T00:49:20;15.10;99.90
9730;DHT22;4904;49.152;11.004;2023-07-22T00:51:48;15.10;99.90
9730;DHT22;4904;49.152;11.004;2023-07-22T00:54:15;15.00;99.90
9730;DHT22;4904;49.152;11.004;2023-07-22T00:56:43;15.10;99.90
9730;DHT22;4904;49.152;11.004;2023-07-22T00:59:10;15.00;99.90
9730;DHT22;4904;49.152;11.004;2023-07-22T01:01:37;15.00;99.90
9730;DHT22;4904;49.152;11.004;2023-07-22T01:04:06;15.00;99.90
9730;DHT22;4904;49.152;11.004;2023-07-22T01:06:34;15.00;99.90
9730;DHT22;4904;49.152;11.004;2023-07-22T01:09:02;14.90;99.90
9730;DHT22;4904;49.152;11.004;2023-07-22T01:11:30;14.90;99.90
9730;DHT22;4904;49.152;11.004;2023-07-22T01:13:57;14.90;99.90
9730;DHT22;4904;49.152;11.004;2023-07-22T01:16:25;14.90;99.90
9730;DHT22;4904;49.152;11.004;2023-07-22T01:18:53;14.80;99.90
9730;DHT22;4904;49.152;11.004;2023-07-22T01:21:23;14.80;99.90
9730;DHT22;4904;49.152;11.004;2023-07-22T01:23:52;14.80;99.90
9730;DHT22;4904;49.152;11.004;2023-07-22T01:26:19;14.80;99.90
9730;DHT22;4904;49.152;11.004;2023-07-22T01:28:46;14.70;99.90
9730;DHT22;4904;49.152;11.004;2023-07-22T01:31:14;14.80;99.90
9730;DHT22;4904;49.152;11.004;2023-07-22T01:33:41;14.60;99.90
9730;DHT22;4904;49.152;11.004;2023-07-22T01:36:07;14.50;99.90
9730;DHT22;4904;49.152;11.004;2023-07-22T01:38:34;14.60;99.90
9730;DHT22;4904;49.152;11.004;2023-07-22T01:41:03;14.60;99.90
9730;DHT22;4904;49.152;11.004;2023-07-22T01:43:30;14.60;99.90
9730;DHT22;4904;49.152;11.004;2023-07-22T01:45:57;14.60;99.90
9730;DHT22;4904;49.152;11.004;2023-07-22T01:48:24;14.60;99.90
9730;DHT22;4904;49.152;11.004;2023-07-22T01:50:51;14.50;99.90
9730;DHT22;4904;49.152;11.004;2023-07-22T01:53:18;14.50;99.90
9730;DHT22;4904;49.152;11.004;2023-07-22T01:55:45;14.50;99.90
9730;DHT22;4904;49.152;11.004;2023-07-22T01:58:13;14.50;99.90
9730;DHT22;4904;49.152;11.004;2023-07-22T02:00:40;14.40;99.90
9730;DHT22;4904;49.152;11.004;2023-07-22T02:03:07;14.50;99.90
9730;DHT22;4904;49.152;11.004;2023-07-22T02:05:34;14.40;99.90
9730;DHT22;4904;49.152;11.004;2023-07-22T02:08:01;14.40;99.90
9730;DHT22;4904;49.152;11.004;2023-07-22T02:10:28;14.40;99.90
9730;DHT22;4904;49.152;11.004;2023-07-22T02:12:55;14.40;99.90
9730;DHT22;4904;49.152;11.004;2023-07-22T02:15:23;14.30;99.90
9730;DHT22;4904;49.152;11.004;2023-07-22T02:17:50;14.30;99.90
9730;DHT22;4904;49.152;11.004;2023-07-22T02:20:17;14.30;99.90
9730;DHT22;4904;49.152;11.004;2023-07-22T02:22:44;14.30;99.90
9730;DHT22;4904;49.152;11.004;2023-07-22T02:25:11;14.40;99.90
9730;DHT22;4904;49.152;11.004;2023-07-22T02:27:40;14.30;99.90
9730;DHT22;4904;49.152;11.004;2023-07-22T02:30:09;14.30;99.90
9730;DHT22;4904;49.152;11.004;2023-07-22T02:32:38;14.30;99.90
9730;DHT22;4904;49.152;11.004;2023-07-22T02:35:06;14.30;99.90
9730;DHT22;4904;49.152;11.004;2023-07-22T02:37:35;14.30;99.90
9730;DHT22;4904;49.152;11.004;2023-07-22T02:40:02;14.30;99.90
9730;DHT22;4904;49.152;11.004;2023-07-22T02:42:33;14.30;99.90
9730;DHT22;4904;49.152;11.004;2023-07-22T02:45:00;14.20;99.90
9730;DHT22;4904;49.152;11.004;2023-07-22T02:47:27;14.20;99.90
9730;DHT22;4904;49.152;11.004;2023-07-22T02:49:56;14.20;99.90
9730;DHT22;4904;49.152;11.004;2023-07-22T02:52:23;14.20;99.90
9730;DHT22;4904;49.152;11.004;2023-07-22T02:55:07;14.20;99.90
9730;DHT22;4904;49.152;11.004;2023-07-22T02:57:36;14.30;99.90
9730;DHT22;4904;49.152;11.004;2023-07-22T03:00:05;14.20;99.90
9730;DHT22;4904;49.152;11.004;2023-07-22T03:02:34;14.10;99.90
9730;DHT22;4904;49.152;11.004;2023-07-22T03:05:03;14.00;99.90
9730;DHT22;4904;49.152;11.004;2023-07-22T03:07:33;13.90;99.90
9730;DHT22;4904;49.152;11.004;2023-07-22T03:10:00;13.90;99.90
9730;DHT22;4904;49.152;11.004;2023-07-22T03:12:27;13.90;99.90
9730;DHT22;4904;49.152;11.004;2023-07-22T03:14:54;13.80;99.90
9730;DHT22;4904;49.152;11.004;2023-07-22T03:17:21;13.90;99.90
9730;DHT22;4904;49.152;11.004;2023-07-22T03:19:48;13.90;99.90
9730;DHT22;4904;49.152;11.004;2023-07-22T03:22:17;13.90;99.90
9730;DHT22;4904;49.152;11.004;2023-07-22T03:24:45;13.90;99.90
9730;DHT22;4904;49.152;11.004;2023-07-22T03:27:14;13.80;99.90
9730;DHT22;4904;49.152;11.004;2023-07-22T03:29:42;13.90;99.90
9730;DHT22;4904;49.152;11.004;2023-07-22T03:32:10;13.90;99.90
9730;DHT22;4904;49.152;11.004;2023-07-22T03:34:37;13.80;99.90
9730;DHT22;4904;49.152;11.004;2023-07-22T03:37:04;13.80;99.90
9730;DHT22;4904;49.152;11.004;2023-07-22T03:39:32;13.70;99.90
9730;DHT22;4904;49.152;11.004;2023-07-22T03:41:59;13.80;99.90
9730;DHT22;4904;49.152;11.004;2023-07-22T03:44:29;13.70;99.90
9730;DHT22;4904;49.152;11.004;2023-07-22T03:46:56;13.70;99.90
9730;DHT22;4904;49.152;11.004;2023-07-22T03:49:24;13.70;99.90
9730;DHT22;4904;49.152;11.004;2023-07-22T03:51:50;13.60;99.90
9730;DHT22;4904;49.152;11.004;2023-07-22T03:54:17;13.40;99.90
9730;DHT22;4904;49.152;11.004;2023-07-22T03:56:46;13.40;99.90
9730;DHT22;4904;49.152;11.004;2023-07-22T03:59:13;13.40;99.90
9730;DHT22;4904;49.152;11.004;2023-07-22T04:01:40;13.40;99.90
9730;DHT22;4904;49.152;11.004;2023-07-22T04:04:07;13.30;99.90
9730;DHT22;4904;49.152;11.004;2023-07-22T04:06:35;13.40;99.90
9730;DHT22;4904;49.152;11.004;2023-07-22T04:09:02;13.50;99.90
9730;DHT22;4904;49.152;11.004;2023-07-22T04:11:28;13.60;99.90
9730;DHT22;4904;49.152;11.004;2023-07-22T04:13:56;13.60;99.90
9730;DHT22;4904;49.152;11.004;2023-07-22T04:16:23;13.70;99.90
9730;DHT22;4904;49.152;11.004;2023-07-22T04:18:50;13.60;99.90
9730;DHT22;4904;49.152;11.004;2023-07-22T04:21:17;13.20;99.90
9730;DHT22;4904;49.152;11.004;2023-07-22T04:23:44;13.50;99.90
9730;DHT22;4904;49.152;11.004;2023-07-22T04:26:11;13.60;99.90
9730;DHT22;4904;49.152;11.004;2023-07-22T04:28:38;13.70;99.90
9730;DHT22;4904;49.152;11.004;2023-07-22T04:31:06;13.70;99.90
9730;DHT22;4904;49.152;11.004;2023-07-22T04:33:35;13.70;99.90
9730;DHT22;4904;49.152;11.004;2023-07-22T04:36:02;13.80;99.90
9730;DHT22;4904;49.152;11.004;2023-07-22T04:38:29;13.80;99.90
9730;DHT22;4904;49.152;11.004;2023-07-22T04:40:56;13.80;99.90
9730;DHT22;4904;49.152;11.004;2023-07-22T04:43:23;13.90;99.90
9730;DHT22;4904;49.152;11.004;2023-07-22T04:45:50;13.90;99.90
9730;DHT22;4904;49.152;11.004;2023-07-22T04:48:20;14.00;99.90
9730;DHT22;4904;49.152;11.004;2023-07-22T04:50:47;14.00;99.90
9730;DHT22;4904;49.152;11.004;2023-07-22T04:53:15;14.00;99.90
9730;DHT22;4904;49.152;11.004;2023-07-22T04:55:43;14.10;99.90
9730;DHT22;4904;49.152;11.004;2023-07-22T04:58:10;14.10;99.90
9730;DHT22;4904;49.152;11.004;2023-07-22T05:00:37;14.10;99.90
9730;DHT22;4904;49.152;11.004;2023-07-22T05:03:04;14.20;99.90
9730;DHT22;4904;49.152;11.004;2023-07-22T05:05:32;14.10;99.90
9730;DHT22;4904;49.152;11.004;2023-07-22T05:07:59;14.20;99.90
9730;DHT22;4904;49.152;11.004;2023-07-22T05:10:27;14.20;99.90
9730;DHT22;4904;49.152;11.004;2023-07-22T05:12:54;14.20;99.90
9730;DHT22;4904;49.152;11.004;2023-07-22T05:15:22;14.20;99.90
9730;DHT22;4904;49.152;11.004;2023-07-22T05:17:49;14.20;99.90
9730;DHT22;4904;49.152;11.004;2023-07-22T05:20:16;14.20;99.90
9730;DHT22;4904;49.152;11.004;2023-07-22T05:22:44;14.30;99.90
9730;DHT22;4904;49.152;11.004;2023-07-22T05:25:11;14.30;99.90
9730;DHT22;4904;49.152;11.004;2023-07-22T05:27:39;14.30;99.90
9730;DHT22;4904;49.152;11.004;2023-07-22T05:30:07;14.40;99.90
9730;DHT22;4904;49.152;11.004;2023-07-22T05:32:35;14.40;99.90
9730;DHT22;4904;49.152;11.004;2023-07-22T05:35:02;14.40;99.90
9730;DHT22;4904;49.152;11.004;2023-07-22T05:37:30;14.50;99.90
9730;DHT22;4904;49.152;11.004;2023-07-22T05:39:59;14.50;99.90
9730;DHT22;4904;49.152;11.004;2023-07-22T05:42:26;14.60;99.90
9730;DHT22;4904;49.152;11.004;2023-07-22T05:44:54;15.10;99.90
9730;DHT22;4904;49.152;11.004;2023-07-22T05:47:21;14.60;99.90
9730;DHT22;4904;49.152;11.004;2023-07-22T05:49:48;14.50;99.90
9730;DHT22;4904;49.152;11.004;2023-07-22T05:52:15;14.40;99.90
9730;DHT22;4904;49.152;11.004;2023-07-22T05:54:42;14.40;99.90
9730;DHT22;4904;49.152;11.004;2023-07-22T05:57:10;14.50;99.90
9730;DHT22;4904;49.152;11.004;2023-07-22T05:59:37;14.60;99.90
9730;DHT22;4904;49.152;11.004;2023-07-22T06:02:06;14.70;99.90
9730;DHT22;4904;49.152;11.004;2023-07-22T06:04:33;14.70;99.90
9730;DHT22;4904;49.152;11.004;2023-07-22T06:07:00;14.80;99.90
9730;DHT22;4904;49.152;11.004;2023-07-22T06:09:26;14.80;99.90
9730;DHT22;4904;49.152;11.004;2023-07-22T06:11:53;14.90;99.90
9730;DHT22;4904;49.152;11.004;2023-07-22T06:14:22;15.20;99.90
9730;DHT22;4904;49.152;11.004;2023-07-22T06:16:48;15.10;99.90
9730;DHT22;4904;49.152;11.004;2023-07-22T06:19:15;15.20;99.90
9730;DHT22;4904;49.152;11.004;2023-07-22T06:21:42;15.40;99.90
9730;DHT22;4904;49.152;11.004;2023-07-22T06:24:10;15.40;99.90
9730;DHT22;4904;49.152;11.004;2023-07-22T06:26:37;15.50;99.90
9730;DHT22;4904;49.152;11.004;2023-07-22T06:29:04;15.60;99.90
9730;DHT22;4904;49.152;11.004;2023-07-22T06:31:32;15.70;99.90
9730;DHT22;4904;49.152;11.004;2023-07-22T06:33:59;15.80;99.90
9730;DHT22;4904;49.152;11.004;2023-07-22T06:36:26;15.90;99.90
9730;DHT22;4904;49.152;11.004;2023-07-22T06:38:53;16.00;99.90
9730;DHT22;4904;49.152;11.004;2023-07-22T06:41:20;16.00;99.90
9730;DHT22;4904;49.152;11.004;2023-07-22T06:43:49;16.20;99.90
9730;DHT22;4904;49.152;11.004;2023-07-22T06:46:17;16.30;99.90
9730;DHT22;4904;49.152;11.004;2023-07-22T06:48:45;16.20;99.90
9730;DHT22;4904;49.152;11.004;2023-07-22T06:51:12;16.30;99.90
9730;DHT22;4904;49.152;11.004;2023-07-22T06:53:39;16.40;99.90
9730;DHT22;4904;49.152;11.004;2023-07-22T06:56:06;16.50;99.90
9730;DHT22;4904;49.152;11.004;2023-07-22T06:58:33;16.50;99.90
9730;DHT22;4904;49.152;11.004;2023-07-22T07:01:00;16.60;99.90
9730;DHT22;4904;49.152;11.004;2023-07-22T07:03:27;16.60;99.90
9730;DHT22;4904;49.152;11.004;2023-07-22T07:05:55;16.70;99.90
9730;DHT22;4904;49.152;11.004;2023-07-22T07:08:23;16.80;99.90
9730;DHT22;4904;49.152;11.004;2023-07-22T07:10:50;16.80;99.90
9730;DHT22;4904;49.152;11.004;2023-07-22T07:13:17;16.90;99.90
9730;DHT22;4904;49.152;11.004;2023-07-22T07:15:47;16.90;99.90
9730;DHT22;4904;49.152;11.004;2023-07-22T07:18:15;17.00;99.90
9730;DHT22;4904;49.152;11.004;2023-07-22T07:20:43;17.10;99.90
9730;DHT22;4904;49.152;11.004;2023-07-22T07:23:12;17.10;99.90
9730;DHT22;4904;49.152;11.004;2023-07-22T07:25:41;17.30;99.90
9730;DHT22;4904;49.152;11.004;2023-07-22T07:28:08;17.40;99.90
9730;DHT22;4904;49.152;11.004;2023-07-22T07:30:35;17.50;99.90
9730;DHT22;4904;49.152;11.004;2023-07-22T07:33:03;17.60;99.90
9730;DHT22;4904;49.152;11.004;2023-07-22T07:35:30;17.70;99.90
9730;DHT22;4904;49.152;11.004;2023-07-22T07:37:57;17.70;99.90
9730;DHT22;4904;49.152;11.004;2023-07-22T07:40:26;17.80;99.90
9730;DHT22;4904;49.152;11.004;2023-07-22T07:42:53;17.80;99.90
9730;DHT22;4904;49.152;11.004;2023-07-22T07:45:21;17.90;99.90
9730;DHT22;4904;49.152;11.004;2023-07-22T07:47:48;18.00;99.90
9730;DHT22;4904;49.152;11.004;2023-07-22T07:50:15;18.00;99.90
9730;DHT22;4904;49.152;11.004;2023-07-22T07:52:42;18.10;99.90
9730;DHT22;4904;49.152;11.004;2023-07-22T07:55:09;18.10;99.90
9730;DHT22;4904;49.152;11.004;2023-07-22T07:57:37;18.10;99.90
9730;DHT22;4904;49.152;11.004;2023-07-22T08:00:06;18.00;99.90
9730;DHT22;4904;49.152;11.004;2023-07-22T08:02:34;18.10;99.90
9730;DHT22;4904;49.152;11.004;2023-07-22T08:05:01;18.10;99.90
9730;DHT22;4904;49.152;11.004;2023-07-22T08:07:29;18.10;99.90
9730;DHT22;4904;49.152;11.004;2023-07-22T08:09:56;18.20;99.90
9730;DHT22;4904;49.152;11.004;2023-07-22T08:12:24;18.10;99.90
9730;DHT22;4904;49.152;11.004;2023-07-22T08:14:53;18.20;99.90
9730;DHT22;4904;49.152;11.004;2023-07-22T08:17:20;18.30;99.90
9730;DHT22;4904;49.152;11.004;2023-07-22T08:19:47;18.40;99.90
9730;DHT22;4904;49.152;11.004;2023-07-22T08:22:14;18.40;99.90
9730;DHT22;4904;49.152;11.004;2023-07-22T08:24:41;18.50;99.90
9730;DHT22;4904;49.152;11.004;2023-07-22T08:27:08;18.60;99.90
9730;DHT22;4904;49.152;11.004;2023-07-22T08:29:36;18.70;99.90
9730;DHT22;4904;49.152;11.004;2023-07-22T08:32:05;18.80;99.90
9730;DHT22;4904;49.152;11.004;2023-07-22T08:34:32;18.90;99.90
9730;DHT22;4904;49.152;11.004;2023-07-22T08:36:59;19.00;99.90
9730;DHT22;4904;49.152;11.004;2023-07-22T08:39:26;19.10;99.90
9730;DHT22;4904;49.152;11.004;2023-07-22T08:41:54;19.20;99.90
9730;DHT22;4904;49.152;11.004;2023-07-22T08:44:21;19.30;99.90
9730;DHT22;4904;49.152;11.004;2023-07-22T08:46:54;19.30;99.90
9730;DHT22;4904;49.152;11.004;2023-07-22T08:49:25;19.40;99.90
9730;DHT22;4904;49.152;11.004;2023-07-22T08:51:54;19.50;99.90
9730;DHT22;4904;49.152;11.004;2023-07-22T08:54:23;19.60;99.90
9730;DHT22;4904;49.152;11.004;2023-07-22T08:56:50;19.60;99.90
9730;DHT22;4904;49.152;11.004;2023-07-22T08:59:17;19.60;99.90
9730;DHT22;4904;49.152;11.004;2023-07-22T09:01:45;19.60;99.90
9730;DHT22;4904;49.152;11.004;2023-07-22T09:04:13;19.70;99.90
9730;DHT22;4904;49.152;11.004;2023-07-22T09:06:42;19.80;99.90
9730;DHT22;4904;49.152;11.004;2023-07-22T09:09:10;19.80;99.90
9730;DHT22;4904;49.152;11.004;2023-07-22T09:11:38;19.90;99.90
9730;DHT22;4904;49.152;11.004;2023-07-22T09:14:05;19.80;99.90
9730;DHT22;4904;49.152;11.004;2023-07-22T09:16:33;19.90;99.90
9730;DHT22;4904;49.152;11.004;2023-07-22T09:19:00;19.80;99.90
9730;DHT22;4904;49.152;11.004;2023-07-22T09:21:26;19.90;99.90
9730;DHT22;4904;49.152;11.004;2023-07-22T09:23:55;20.00;99.90
9730;DHT22;4904;49.152;11.004;2023-07-22T09:26:23;20.20;99.90
9730;DHT22;4904;49.152;11.004;2023-07-22T09:28:54;20.40;99.90
9730;DHT22;4904;49.152;11.004;2023-07-22T09:31:22;20.40;99.90
9730;DHT22;4904;49.152;11.004;2023-07-22T09:33:50;20.40;99.90
9730;DHT22;4904;49.152;11.004;2023-07-22T09:36:20;20.20;99.90
9730;DHT22;4904;49.152;11.004;2023-07-22T09:38:59;20.20;99.90
9730;DHT22;4904;49.152;11.004;2023-07-22T09:41:28;20.40;99.90
9730;DHT22;4904;49.152;11.004;2023-07-22T09:43:56;20.40;99.90
9730;DHT22;4904;49.152;11.004;2023-07-22T09:46:31;20.20;99.90
9730;DHT22;4904;49.152;11.004;2023-07-22T09:49:03;20.40;99.90
9730;DHT22;4904;49.152;11.004;2023-07-22T09:51:33;20.60;99.90
9730;DHT22;4904;49.152;11.004;2023-07-22T09:54:03;20.60;99.90
9730;DHT22;4904;49.152;11.004;2023-07-22T09:56:31;20.60;99.90
9730;DHT22;4904;49.152;11.004;2023-07-22T09:58:59;20.70;99.90
9730;DHT22;4904;49.152;11.004;2023-07-22T10:01:30;20.80;99.90
9730;DHT22;4904;49.152;11.004;2023-07-22T10:03:57;20.90;99.90
9730;DHT22;4904;49.152;11.004;2023-07-22T10:06:27;20.70;99.90
9730;DHT22;4904;49.152;11.004;2023-07-22T10:08:55;20.90;99.90
9730;DHT22;4904;49.152;11.004;2023-07-22T10:11:25;21.00;99.90
9730;DHT22;4904;49.152;11.004;2023-07-22T10:13:55;20.90;99.90
9730;DHT22;4904;49.152;11.004;2023-07-22T10:16:23;20.80;99.90
9730;DHT22;4904;49.152;11.004;2023-07-22T10:18:50;20.80;99.90
9730;DHT22;4904;49.152;11.004;2023-07-22T10:21:17;20.80;99.90
9730;DHT22;4904;49.152;11.004;2023-07-22T10:23:46;20.90;99.90
9730;DHT22;4904;49.152;11.004;2023-07-22T10:26:15;20.90;99.90
9730;DHT22;4904;49.152;11.004;2023-07-22T10:28:46;20.80;99.90
9730;DHT22;4904;49.152;11.004;2023-07-22T10:31:13;20.90;99.90
9730;DHT22;4904;49.152;11.004;2023-07-22T10:33:44;20.80;99.90
9730;DHT22;4904;49.152;11.004;2023-07-22T10:36:14;20.80;99.90
9730;DHT22;4904;49.152;11.004;2023-07-22T10:38:41;20.80;99.90
9730;DHT22;4904;49.152;11.004;2023-07-22T10:41:13;20.90;99.90
9730;DHT22;4904;49.152;11.004;2023-07-22T10:43:53;21.00;99.90
9730;DHT22;4904;49.152;11.004;2023-07-22T10:46:31;21.00;99.90
9730;DHT22;4904;49.152;11.004;2023-07-22T10:49:09;21.00;99.90
9730;DHT22;4904;49.152;11.004;2023-07-22T10:51:37;21.10;99.90
9730;DHT22;4904;49.152;11.004;2023-07-22T10:54:10;21.20;99.90
9730;DHT22;4904;49.152;11.004;2023-07-22T10:56:37;21.20;99.90
9730;DHT22;4904;49.152;11.004;2023-07-22T10:59:10;21.20;99.90
9730;DHT22;4904;49.152;11.004;2023-07-22T11:01:38;21.20;99.90
9730;DHT22;4904;49.152;11.004;2023-07-22T11:04:21;21.20;99.90
9730;DHT22;4904;49.152;11.004;2023-07-22T11:06:56;21.30;99.90
9730;DHT22;4904;49.152;11.004;2023-07-22T11:09:39;21.00;99.90
9730;DHT22;4904;49.152;11.004;2023-07-22T11:12:12;20.90;99.90
9730;DHT22;4904;49.152;11.004;2023-07-22T11:14:46;21.10;99.90
9730;DHT22;4904;49.152;11.004;2023-07-22T11:17:14;21.30;99.90
9730;DHT22;4904;49.152;11.004;2023-07-22T11:19:41;21.40;99.90
9730;DHT22;4904;49.152;11.004;2023-07-22T11:22:08;21.60;99.90
9730;DHT22;4904;49.152;11.004;2023-07-22T11:24:36;21.70;99.90
9730;DHT22;4904;49.152;11.004;2023-07-22T11:27:04;21.90;99.90
9730;DHT22;4904;49.152;11.004;2023-07-22T11:29:32;22.00;99.90
9730;DHT22;4904;49.152;11.004;2023-07-22T11:32:01;22.10;99.90
9730;DHT22;4904;49.152;11.004;2023-07-22T11:34:28;22.30;99.90
9730;DHT22;4904;49.152;11.004;2023-07-22T11:36:56;22.50;99.90
9730;DHT22;4904;49.152;11.004;2023-07-22T11:39:25;22.60;99.90
9730;DHT22;4904;49.152;11.004;2023-07-22T11:41:52;22.60;99.90
9730;DHT22;4904;49.152;11.004;2023-07-22T11:44:20;22.60;99.90
9730;DHT22;4904;49.152;11.004;2023-07-22T11:46:51;22.70;99.90
9730;DHT22;4904;49.152;11.004;2023-07-22T11:49:30;22.80;99.90
9730;DHT22;4904;49.152;11.004;2023-07-22T11:51:58;22.80;99.90
9730;DHT22;4904;49.152;11.004;2023-07-22T11:54:26;22.70;99.90
9730;DHT22;4904;49.152;11.004;2023-07-22T11:56:54;22.70;99.90
9730;DHT22;4904;49.152;11.004;2023-07-22T11:59:39;22.50;99.90
9730;DHT22;4904;49.152;11.004;2023-07-22T12:02:06;22.50;99.90
9730;DHT22;4904;49.152;11.004;2023-07-22T12:04:35;22.50;99.90
9730;DHT22;4904;49.152;11.004;2023-07-22T12:07:02;22.40;99.90
9730;DHT22;4904;49.152;11.004;2023-07-22T12:09:30;22.40;99.90
9730;DHT22;4904;49.152;11.004;2023-07-22T12:11:59;22.50;99.90
9730;DHT22;4904;49.152;11.004;2023-07-22T12:14:33;22.60;99.90
9730;DHT22;4904;49.152;11.004;2023-07-22T12:17:01;22.40;99.90
9730;DHT22;4904;49.152;11.004;2023-07-22T12:19:28;22.40;99.90
9730;DHT22;4904;49.152;11.004;2023-07-22T12:21:57;22.50;99.90
9730;DHT22;4904;49.152;11.004;2023-07-22T12:24:24;22.40;99.90
9730;DHT22;4904;49.152;11.004;2023-07-22T12:26:51;22.30;99.90
9730;DHT22;4904;49.152;11.004;2023-07-22T12:29:18;22.50;99.90
9730;DHT22;4904;49.152;11.004;2023-07-22T12:31:45;22.60;99.90
9730;DHT22;4904;49.152;11.004;2023-07-22T12:34:12;22.70;99.90
9730;DHT22;4904;49.152;11.004;2023-07-22T12:36:40;22.80;99.90
9730;DHT22;4904;49.152;11.004;2023-07-22T12:39:08;22.80;99.90
9730;DHT22;4904;49.152;11.004;2023-07-22T12:41:35;22.80;99.90
9730;DHT22;4904;49.152;11.004;2023-07-22T12:44:02;22.80;99.90
9730;DHT22;4904;49.152;11.004;2023-07-22T12:46:29;22.80;99.90
9730;DHT22;4904;49.152;11.004;2023-07-22T12:48:56;23.00;99.90
9730;DHT22;4904;49.152;11.004;2023-07-22T12:51:25;22.90;99.90
9730;DHT22;4904;49.152;11.004;2023-07-22T12:53:52;22.90;99.90
9730;DHT22;4904;49.152;11.004;2023-07-22T12:56:21;23.10;99.90
9730;DHT22;4904;49.152;11.004;2023-07-22T12:58:47;23.30;99.90
9730;DHT22;4904;49.152;11.004;2023-07-22T13:01:14;23.30;99.90
9730;DHT22;4904;49.152;11.004;2023-07-22T13:03:41;23.40;99.90
9730;DHT22;4904;49.152;11.004;2023-07-22T13:06:08;23.50;99.90
9730;DHT22;4904;49.152;11.004;2023-07-22T13:08:35;23.60;99.90
9730;DHT22;4904;49.152;11.004;2023-07-22T13:11:02;23.70;99.90
9730;DHT22;4904;49.152;11.004;2023-07-22T13:13:30;23.70;99.90
9730;DHT22;4904;49.152;11.004;2023-07-22T13:15:57;23.50;99.90
9730;DHT22;4904;49.152;11.004;2023-07-22T13:18:24;23.60;99.90
9730;DHT22;4904;49.152;11.004;2023-07-22T13:20:51;23.60;99.90
9730;DHT22;4904;49.152;11.004;2023-07-22T13:23:18;23.70;99.90
9730;DHT22;4904;49.152;11.004;2023-07-22T13:25:45;23.90;99.90
9730;DHT22;4904;49.152;11.004;2023-07-22T13:28:11;24.00;99.90
9730;DHT22;4904;49.152;11.004;2023-07-22T13:30:40;24.20;99.90
9730;DHT22;4904;49.152;11.004;2023-07-22T13:33:07;24.30;99.90
9730;DHT22;4904;49.152;11.004;2023-07-22T13:35:34;24.20;99.90
9730;DHT22;4904;49.152;11.004;2023-07-22T13:38:01;24.10;99.90
9730;DHT22;4904;49.152;11.004;2023-07-22T13:40:28;24.00;99.90
9730;DHT22;4904;49.152;11.004;2023-07-22T13:42:56;24.10;99.90
9730;DHT22;4904;49.152;11.004;2023-07-22T13:45:23;24.30;99.90
9730;DHT22;4904;49.152;11.004;2023-07-22T13:47:51;24.30;99.90
9730;DHT22;4904;49.152;11.004;2023-07-22T13:50:18;24.20;99.90
9730;DHT22;4904;49.152;11.004;2023-07-22T13:52:44;24.20;99.90
9730;DHT22;4904;49.152;11.004;2023-07-22T13:55:11;24.20;99.90
9730;DHT22;4904;49.152;11.004;2023-07-22T13:57:38;24.20;99.90
9730;DHT22;4904;49.152;11.004;2023-07-22T14:00:06;23.80;99.90
9730;DHT22;4904;49.152;11.004;2023-07-22T14:02:36;23.90;99.90
9730;DHT22;4904;49.152;11.004;2023-07-22T14:05:06;23.90;99.90
9730;DHT22;4904;49.152;11.004;2023-07-22T14:07:34;23.90;99.90
9730;DHT22;4904;49.152;11.004;2023-07-22T14:10:01;24.10;99.90
9730;DHT22;4904;49.152;11.004;2023-07-22T14:12:29;24.20;99.90
9730;DHT22;4904;49.152;11.004;2023-07-22T14:14:56;24.00;99.90
9730;DHT22;4904;49.152;11.004;2023-07-22T14:17:23;24.00;99.90
9730;DHT22;4904;49.152;11.004;2023-07-22T14:19:51;24.00;99.90
9730;DHT22;4904;49.152;11.004;2023-07-22T14:22:18;23.90;99.90
9730;DHT22;4904;49.152;11.004;2023-07-22T14:24:45;23.90;99.90
9730;DHT22;4904;49.152;11.004;2023-07-22T14:27:12;23.90;99.90
9730;DHT22;4904;49.152;11.004;2023-07-22T14:29:39;24.00;99.90
9730;DHT22;4904;49.152;11.004;2023-07-22T14:32:06;24.10;99.90
9730;DHT22;4904;49.152;11.004;2023-07-22T14:34:34;24.20;99.90
9730;DHT22;4904;49.152;11.004;2023-07-22T14:37:01;24.30;99.90
9730;DHT22;4904;49.152;11.004;2023-07-22T14:39:31;24.40;99.90
9730;DHT22;4904;49.152;11.004;2023-07-22T14:41:58;24.60;99.90
9730;DHT22;4904;49.152;11.004;2023-07-22T14:44:24;24.70;99.90
9730;DHT22;4904;49.152;11.004;2023-07-22T14:46:51;24.70;99.90
9730;DHT22;4904;49.152;11.004;2023-07-22T14:49:18;24.70;99.90
9730;DHT22;4904;49.152;11.004;2023-07-22T14:51:45;24.60;99.90
9730;DHT22;4904;49.152;11.004;2023-07-22T14:54:12;24.50;99.90
9730;DHT22;4904;49.152;11.004;2023-07-22T14:56:41;24.70;99.90
9730;DHT22;4904;49.152;11.004;2023-07-22T14:59:08;24.90;99.90
9730;DHT22;4904;49.152;11.004;2023-07-22T15:01:38;24.70;99.90
9730;DHT22;4904;49.152;11.004;2023-07-22T15:04:05;24.70;99.90
9730;DHT22;4904;49.152;11.004;2023-07-22T15:06:32;24.80;99.90
9730;DHT22;4904;49.152;11.004;2023-07-22T15:09:01;25.10;99.90
9730;DHT22;4904;49.152;11.004;2023-07-22T15:11:31;25.40;99.90
9730;DHT22;4904;49.152;11.004;2023-07-22T15:14:00;25.70;99.90
9730;DHT22;4904;49.152;11.004;2023-07-22T15:16:27;25.70;99.90
9730;DHT22;4904;49.152;11.004;2023-07-22T15:18:54;25.70;99.90
9730;DHT22;4904;49.152;11.004;2023-07-22T15:21:21;25.90;99.90
9730;DHT22;4904;49.152;11.004;2023-07-22T15:23:48;25.60;99.90
9730;DHT22;4904;49.152;11.004;2023-07-22T15:26:15;25.20;99.90
9730;DHT22;4904;49.152;11.004;2023-07-22T15:28:43;24.90;99.90
9730;DHT22;4904;49.152;11.004;2023-07-22T15:31:11;25.10;99.90
9730;DHT22;4904;49.152;11.004;2023-07-22T15:33:38;25.40;99.90
9730;DHT22;4904;49.152;11.004;2023-07-22T15:36:05;25.70;99.90
9730;DHT22;4904;49.152;11.004;2023-07-22T15:38:32;25.80;99.90
9730;DHT22;4904;49.152;11.004;2023-07-22T15:41:02;25.30;99.90
9730;DHT22;4904;49.152;11.004;2023-07-22T15:43:30;24.80;99.90
9730;DHT22;4904;49.152;11.004;2023-07-22T15:45:57;24.50;99.90
9730;DHT22;4904;49.152;11.004;2023-07-22T15:48:26;24.40;99.90